sensor_id;sensor_type;location;lat;lon;timestamp;P1;durP1;ratioP1;P2;durP2;ratioP2
18042;SDS011;9146;48.074;11.968;2023-05-15T00:01:55;37.50;;;19.97;;
18042;SDS011;9146;48.074;11.968;2023-05-15T00:04:22;41.30;;;19.30;;
18042;SDS011;9146;48.074;11.968;2023-05-15T00:06:49;35.27;;;18.53;;
18042;SDS011;9146;48.074;11.968;2023-05-15T00:09:18;31.83;;;17.00;;
18042;SDS011;9146;48.074;11.968;2023-05-15T00:11:45;31.00;;;16.13;;
18042;SDS011;9146;48.074;11.968;2023-05-15T00:14:12;33.57;;;16.33;;
18042;SDS011;9146;48.074;11.968;2023-05-15T00:16:39;28.37;;;14.90;;
18042;SDS011;9146;48.074;11.968;2023-05-15T00:19:06;33.93;;;16.10;;
18042;SDS011;9146;48.074;11.968;2023-05-15T00:21:33;25.67;;;14.67;;
18042;SDS011;9146;48.074;11.968;2023-05-15T00:24:00;23.87;;;14.70;;
18042;SDS011;9146;48.074;11.968;2023-05-15T00:26:28;23.77;;;14.67;;
18042;SDS011;9146;48.074;11.968;2023-05-15T00:28:55;25.97;;;14.50;;
18042;SDS011;9146;48.074;11.968;2023-05-15T00:31:22;32.30;;;15.53;;
18042;SDS011;9146;48.074;11.968;2023-05-15T00:33:49;28.70;;;14.67;;
18042;SDS011;9146;48.074;11.968;2023-05-15T00:36:16;31.25;;;16.23;;
18042;SDS011;9146;48.074;11.968;2023-05-15T00:38:45;37.03;;;16.03;;
18042;SDS011;9146;48.074;11.968;2023-05-15T00:41:12;39.77;;;15.80;;
18042;SDS011;9146;48.074;11.968;2023-05-15T00:43:42;29.43;;;14.93;;
18042;SDS011;9146;48.074;11.968;2023-05-15T00:46:11;28.30;;;13.83;;
18042;SDS011;9146;48.074;11.968;2023-05-15T00:48:38;29.93;;;14.70;;
18042;SDS011;9146;48.074;11.968;2023-05-15T00:51:07;25.07;;;14.63;;
18042;SDS011;9146;48.074;11.968;2023-05-15T00:53:35;25.50;;;13.33;;
18042;SDS011;9146;48.074;11.968;2023-05-15T00:56:02;20.10;;;13.00;;
18042;SDS011;9146;48.074;11.968;2023-05-15T00:58:31;27.73;;;14.47;;
18042;SDS011;9146;48.074;11.968;2023-05-15T01:01:01;27.10;;;13.20;;
18042;SDS011;9146;48.074;11.968;2023-05-15T01:03:28;32.30;;;15.30;;
18042;SDS011;9146;48.074;11.968;2023-05-15T01:05:55;32.70;;;14.70;;
18042;SDS011;9146;48.074;11.968;2023-05-15T01:08:22;27.40;;;13.43;;
18042;SDS011;9146;48.074;11.968;2023-05-15T01:10:53;26.30;;;14.13;;
18042;SDS011;9146;48.074;11.968;2023-05-15T01:13:20;33.03;;;16.43;;
18042;SDS011;9146;48.074;11.968;2023-05-15T01:15:48;32.73;;;14.10;;
18042;SDS011;9146;48.074;11.968;2023-05-15T01:18:17;26.77;;;13.70;;
18042;SDS011;9146;48.074;11.968;2023-05-15T01:20:46;37.10;;;16.30;;
18042;SDS011;9146;48.074;11.968;2023-05-15T01:23:27;27.20;;;14.53;;
18042;SDS011;9146;48.074;11.968;2023-05-15T01:26:07;36.10;;;16.17;;
18042;SDS011;9146;48.074;11.968;2023-05-15T01:29:03;40.63;;;17.90;;
18042;SDS011;9146;48.074;11.968;2023-05-15T01:31:34;34.60;;;16.87;;
18042;SDS011;9146;48.074;11.968;2023-05-15T01:34:05;34.97;;;17.20;;
18042;SDS011;9146;48.074;11.968;2023-05-15T01:36:35;47.80;;;18.83;;
18042;SDS011;9146;48.074;11.968;2023-05-15T01:39:06;38.93;;;16.20;;
18042;SDS011;9146;48.074;11.968;2023-05-15T01:41:35;43.00;;;18.60;;
18042;SDS011;9146;48.074;11.968;2023-05-15T01:44:13;54.50;;;20.83;;
18042;SDS011;9146;48.074;11.968;2023-05-15T01:46:43;49.67;;;19.67;;
18042;SDS011;9146;48.074;11.968;2023-05-15T01:49:15;49.90;;;20.93;;
18042;SDS011;9146;48.074;11.968;2023-05-15T01:51:44;42.17;;;19.97;;
18042;SDS011;9146;48.074;11.968;2023-05-15T01:54:16;35.47;;;17.50;;
18042;SDS011;9146;48.074;11.968;2023-05-15T01:56:44;43.47;;;18.87;;
18042;SDS011;9146;48.074;11.968;2023-05-15T01:59:13;34.30;;;15.67;;
18042;SDS011;9146;48.074;11.968;2023-05-15T02:01:41;36.07;;;16.67;;
18042;SDS011;9146;48.074;11.968;2023-05-15T02:04:10;40.07;;;18.30;;
18042;SDS011;9146;48.074;11.968;2023-05-15T02:06:37;48.60;;;19.00;;
18042;SDS011;9146;48.074;11.968;2023-05-15T02:09:06;35.13;;;17.00;;
18042;SDS011;9146;48.074;11.968;2023-05-15T02:11:33;40.57;;;17.67;;
18042;SDS011;9146;48.074;11.968;2023-05-15T02:14:00;42.63;;;17.47;;
18042;SDS011;9146;48.074;11.968;2023-05-15T02:16:29;50.17;;;17.40;;
18042;SDS011;9146;48.074;11.968;2023-05-15T02:18:56;36.27;;;16.77;;
18042;SDS011;9146;48.074;11.968;2023-05-15T02:21:23;45.50;;;18.33;;
18042;SDS011;9146;48.074;11.968;2023-05-15T02:23:50;31.30;;;15.67;;
18042;SDS011;9146;48.074;11.968;2023-05-15T02:26:20;27.83;;;15.10;;
18042;SDS011;9146;48.074;11.968;2023-05-15T02:28:54;36.17;;;16.17;;
18042;SDS011;9146;48.074;11.968;2023-05-15T02:31:31;34.60;;;16.13;;
18042;SDS011;9146;48.074;11.968;2023-05-15T02:34:06;50.83;;;19.03;;
18042;SDS011;9146;48.074;11.968;2023-05-15T02:36:39;37.97;;;17.20;;
18042;SDS011;9146;48.074;11.968;2023-05-15T02:39:09;39.13;;;17.63;;
18042;SDS011;9146;48.074;11.968;2023-05-15T02:41:37;35.17;;;17.50;;
18042;SDS011;9146;48.074;11.968;2023-05-15T02:44:05;41.93;;;17.57;;
18042;SDS011;9146;48.074;11.968;2023-05-15T02:46:35;33.80;;;14.93;;
18042;SDS011;9146;48.074;11.968;2023-05-15T02:49:02;37.23;;;16.77;;
18042;SDS011;9146;48.074;11.968;2023-05-15T02:51:30;32.13;;;15.30;;
18042;SDS011;9146;48.074;11.968;2023-05-15T02:53:58;41.83;;;17.10;;
18042;SDS011;9146;48.074;11.968;2023-05-15T02:56:26;29.93;;;15.27;;
18042;SDS011;9146;48.074;11.968;2023-05-15T02:58:53;39.63;;;16.57;;
18042;SDS011;9146;48.074;11.968;2023-05-15T03:01:20;41.00;;;16.30;;
18042;SDS011;9146;48.074;11.968;2023-05-15T03:03:48;34.77;;;16.83;;
18042;SDS011;9146;48.074;11.968;2023-05-15T03:06:15;43.20;;;16.43;;
18042;SDS011;9146;48.074;11.968;2023-05-15T03:08:42;39.53;;;16.63;;
18042;SDS011;9146;48.074;11.968;2023-05-15T03:11:09;50.10;;;16.30;;
18042;SDS011;9146;48.074;11.968;2023-05-15T03:13:36;41.00;;;15.73;;
18042;SDS011;9146;48.074;11.968;2023-05-15T03:16:03;44.67;;;16.70;;
18042;SDS011;9146;48.074;11.968;2023-05-15T03:18:30;36.43;;;16.63;;
18042;SDS011;9146;48.074;11.968;2023-05-15T03:20:59;55.97;;;19.90;;
18042;SDS011;9146;48.074;11.968;2023-05-15T03:23:25;58.80;;;20.30;;
18042;SDS011;9146;48.074;11.968;2023-05-15T03:25:52;41.70;;;18.73;;
18042;SDS011;9146;48.074;11.968;2023-05-15T03:28:19;38.97;;;17.67;;
18042;SDS011;9146;48.074;11.968;2023-05-15T03:30:46;34.97;;;18.10;;
18042;SDS011;9146;48.074;11.968;2023-05-15T03:33:13;46.43;;;17.60;;
18042;SDS011;9146;48.074;11.968;2023-05-15T03:35:40;55.57;;;20.43;;
18042;SDS011;9146;48.074;11.968;2023-05-15T03:38:10;40.43;;;16.87;;
18042;SDS011;9146;48.074;11.968;2023-05-15T03:40:37;52.50;;;19.07;;
18042;SDS011;9146;48.074;11.968;2023-05-15T03:43:04;36.10;;;16.67;;
18042;SDS011;9146;48.074;11.968;2023-05-15T03:45:32;44.53;;;17.60;;
18042;SDS011;9146;48.074;11.968;2023-05-15T03:47:59;44.23;;;16.90;;
18042;SDS011;9146;48.074;11.968;2023-05-15T03:50:25;45.23;;;18.00;;
18042;SDS011;9146;48.074;11.968;2023-05-15T03:52:52;49.67;;;18.23;;
18042;SDS011;9146;48.074;11.968;2023-05-15T03:55:21;59.43;;;18.40;;
18042;SDS011;9146;48.074;11.968;2023-05-15T03:57:48;64.20;;;20.73;;
18042;SDS011;9146;48.074;11.968;2023-05-15T04:00:16;57.33;;;19.53;;
18042;SDS011;9146;48.074;11.968;2023-05-15T04:02:43;52.20;;;18.30;;
18042;SDS011;9146;48.074;11.968;2023-05-15T04:05:10;40.40;;;15.70;;
18042;SDS011;9146;48.074;11.968;2023-05-15T04:07:37;52.93;;;20.50;;
18042;SDS011;9146;48.074;11.968;2023-05-15T04:10:05;64.87;;;22.43;;
18042;SDS011;9146;48.074;11.968;2023-05-15T04:12:34;45.33;;;20.80;;
18042;SDS011;9146;48.074;11.968;2023-05-15T04:15:15;43.70;;;19.03;;
18042;SDS011;9146;48.074;11.968;2023-05-15T04:17:43;49.27;;;21.60;;
18042;SDS011;9146;48.074;11.968;2023-05-15T04:20:11;44.93;;;18.40;;
18042;SDS011;9146;48.074;11.968;2023-05-15T04:22:39;55.40;;;19.50;;
18042;SDS011;9146;48.074;11.968;2023-05-15T04:25:06;62.37;;;23.10;;
18042;SDS011;9146;48.074;11.968;2023-05-15T04:27:37;84.63;;;24.80;;
18042;SDS011;9146;48.074;11.968;2023-05-15T04:30:05;76.70;;;23.83;;
18042;SDS011;9146;48.074;11.968;2023-05-15T04:32:33;64.90;;;21.10;;
18042;SDS011;9146;48.074;11.968;2023-05-15T04:35:00;54.60;;;21.70;;
18042;SDS011;9146;48.074;11.968;2023-05-15T04:37:27;64.03;;;21.43;;
18042;SDS011;9146;48.074;11.968;2023-05-15T04:39:55;64.53;;;23.03;;
18042;SDS011;9146;48.074;11.968;2023-05-15T04:42:22;74.37;;;23.17;;
18042;SDS011;9146;48.074;11.968;2023-05-15T04:44:50;48.33;;;20.37;;
18042;SDS011;9146;48.074;11.968;2023-05-15T04:47:17;88.87;;;23.63;;
18042;SDS011;9146;48.074;11.968;2023-05-15T04:49:44;75.33;;;23.53;;
18042;SDS011;9146;48.074;11.968;2023-05-15T04:52:12;58.67;;;21.97;;
18042;SDS011;9146;48.074;11.968;2023-05-15T04:54:38;73.10;;;23.30;;
18042;SDS011;9146;48.074;11.968;2023-05-15T04:57:06;67.73;;;23.70;;
18042;SDS011;9146;48.074;11.968;2023-05-15T04:59:33;73.30;;;24.70;;
18042;SDS011;9146;48.074;11.968;2023-05-15T05:02:01;71.60;;;25.50;;
18042;SDS011;9146;48.074;11.968;2023-05-15T05:04:29;69.13;;;23.17;;
18042;SDS011;9146;48.074;11.968;2023-05-15T05:06:55;53.33;;;20.13;;
18042;SDS011;9146;48.074;11.968;2023-05-15T05:09:23;73.00;;;24.57;;
18042;SDS011;9146;48.074;11.968;2023-05-15T05:11:50;89.57;;;23.67;;
18042;SDS011;9146;48.074;11.968;2023-05-15T05:14:16;55.53;;;22.20;;
18042;SDS011;9146;48.074;11.968;2023-05-15T05:16:44;58.87;;;22.30;;
18042;SDS011;9146;48.074;11.968;2023-05-15T05:19:14;64.10;;;23.47;;
18042;SDS011;9146;48.074;11.968;2023-05-15T05:21:41;52.07;;;21.77;;
18042;SDS011;9146;48.074;11.968;2023-05-15T05:24:08;65.10;;;24.47;;
18042;SDS011;9146;48.074;11.968;2023-05-15T05:26:35;86.17;;;22.93;;
18042;SDS011;9146;48.074;11.968;2023-05-15T05:29:02;67.43;;;23.97;;
18042;SDS011;9146;48.074;11.968;2023-05-15T05:31:29;57.23;;;22.80;;
18042;SDS011;9146;48.074;11.968;2023-05-15T05:33:56;83.00;;;24.53;;
18042;SDS011;9146;48.074;11.968;2023-05-15T05:36:24;51.97;;;21.67;;
18042;SDS011;9146;48.074;11.968;2023-05-15T05:38:51;75.83;;;25.80;;
18042;SDS011;9146;48.074;11.968;2023-05-15T05:41:18;60.73;;;21.23;;
18042;SDS011;9146;48.074;11.968;2023-05-15T05:43:45;64.47;;;22.40;;
18042;SDS011;9146;48.074;11.968;2023-05-15T05:46:12;53.70;;;22.20;;
18042;SDS011;9146;48.074;11.968;2023-05-15T05:48:39;62.13;;;22.53;;
18042;SDS011;9146;48.074;11.968;2023-05-15T05:51:06;57.10;;;22.73;;
18042;SDS011;9146;48.074;11.968;2023-05-15T05:53:34;88.83;;;23.03;;
18042;SDS011;9146;48.074;11.968;2023-05-15T05:56:03;56.97;;;19.83;;
18042;SDS011;9146;48.074;11.968;2023-05-15T05:58:30;69.20;;;23.80;;
18042;SDS011;9146;48.074;11.968;2023-05-15T06:00:57;64.07;;;23.30;;
18042;SDS011;9146;48.074;11.968;2023-05-15T06:03:25;74.60;;;23.57;;
18042;SDS011;9146;48.074;11.968;2023-05-15T06:05:52;61.70;;;20.53;;
18042;SDS011;9146;48.074;11.968;2023-05-15T06:08:19;72.80;;;23.07;;
18042;SDS011;9146;48.074;11.968;2023-05-15T06:10:47;78.63;;;23.60;;
18042;SDS011;9146;48.074;11.968;2023-05-15T06:13:15;59.23;;;23.23;;
18042;SDS011;9146;48.074;11.968;2023-05-15T06:15:42;53.03;;;21.27;;
18042;SDS011;9146;48.074;11.968;2023-05-15T06:18:09;62.33;;;22.83;;
18042;SDS011;9146;48.074;11.968;2023-05-15T06:20:36;67.50;;;23.17;;
18042;SDS011;9146;48.074;11.968;2023-05-15T06:23:03;70.13;;;20.57;;
18042;SDS011;9146;48.074;11.968;2023-05-15T06:25:30;62.53;;;22.53;;
18042;SDS011;9146;48.074;11.968;2023-05-15T06:27:58;48.30;;;19.20;;
18042;SDS011;9146;48.074;11.968;2023-05-15T06:30:25;85.83;;;25.50;;
18042;SDS011;9146;48.074;11.968;2023-05-15T06:32:52;88.30;;;25.63;;
18042;SDS011;9146;48.074;11.968;2023-05-15T06:35:19;92.23;;;26.00;;
18042;SDS011;9146;48.074;11.968;2023-05-15T06:37:48;67.50;;;21.13;;
18042;SDS011;9146;48.074;11.968;2023-05-15T06:40:16;77.40;;;22.87;;
18042;SDS011;9146;48.074;11.968;2023-05-15T06:42:43;68.60;;;22.63;;
18042;SDS011;9146;48.074;11.968;2023-05-15T06:45:12;64.67;;;22.23;;
18042;SDS011;9146;48.074;11.968;2023-05-15T06:47:39;60.30;;;22.20;;
18042;SDS011;9146;48.074;11.968;2023-05-15T06:50:06;75.07;;;24.07;;
18042;SDS011;9146;48.074;11.968;2023-05-15T06:52:34;75.63;;;23.50;;
18042;SDS011;9146;48.074;11.968;2023-05-15T06:55:01;63.37;;;22.47;;
18042;SDS011;9146;48.074;11.968;2023-05-15T06:57:28;71.93;;;21.60;;
18042;SDS011;9146;48.074;11.968;2023-05-15T06:59:55;57.47;;;21.17;;
18042;SDS011;9146;48.074;11.968;2023-05-15T07:02:23;70.60;;;25.87;;
18042;SDS011;9146;48.074;11.968;2023-05-15T07:04:50;85.97;;;24.80;;
18042;SDS011;9146;48.074;11.968;2023-05-15T07:07:17;59.40;;;23.07;;
18042;SDS011;9146;48.074;11.968;2023-05-15T07:09:44;63.20;;;22.97;;
18042;SDS011;9146;48.074;11.968;2023-05-15T07:12:12;60.37;;;23.40;;
18042;SDS011;9146;48.074;11.968;2023-05-15T07:14:39;82.93;;;26.20;;
18042;SDS011;9146;48.074;11.968;2023-05-15T07:17:06;63.00;;;21.57;;
18042;SDS011;9146;48.074;11.968;2023-05-15T07:19:35;60.03;;;22.80;;
18042;SDS011;9146;48.074;11.968;2023-05-15T07:22:02;39.13;;;19.00;;
18042;SDS011;9146;48.074;11.968;2023-05-15T07:24:29;50.40;;;20.77;;
18042;SDS011;9146;48.074;11.968;2023-05-15T07:26:56;57.03;;;21.67;;
18042;SDS011;9146;48.074;11.968;2023-05-15T07:29:24;49.30;;;21.10;;
18042;SDS011;9146;48.074;11.968;2023-05-15T07:31:51;54.77;;;20.97;;
18042;SDS011;9146;48.074;11.968;2023-05-15T07:34:18;46.73;;;19.90;;
18042;SDS011;9146;48.074;11.968;2023-05-15T07:36:46;58.20;;;21.20;;
18042;SDS011;9146;48.074;11.968;2023-05-15T07:39:13;50.37;;;21.10;;
18042;SDS011;9146;48.074;11.968;2023-05-15T07:41:40;57.57;;;21.83;;
18042;SDS011;9146;48.074;11.968;2023-05-15T07:44:07;51.90;;;19.90;;
18042;SDS011;9146;48.074;11.968;2023-05-15T07:46:34;51.90;;;18.97;;
18042;SDS011;9146;48.074;11.968;2023-05-15T07:49:00;39.77;;;18.20;;
18042;SDS011;9146;48.074;11.968;2023-05-15T07:51:27;47.80;;;20.60;;
18042;SDS011;9146;48.074;11.968;2023-05-15T07:53:56;49.20;;;21.20;;
18042;SDS011;9146;48.074;11.968;2023-05-15T07:56:23;51.47;;;20.43;;
18042;SDS011;9146;48.074;11.968;2023-05-15T07:58:50;46.47;;;19.83;;
18042;SDS011;9146;48.074;11.968;2023-05-15T08:01:18;37.70;;;18.03;;
18042;SDS011;9146;48.074;11.968;2023-05-15T08:03:45;31.73;;;17.80;;
18042;SDS011;9146;48.074;11.968;2023-05-15T08:06:12;37.47;;;18.40;;
18042;SDS011;9146;48.074;11.968;2023-05-15T08:08:39;43.07;;;21.83;;
18042;SDS011;9146;48.074;11.968;2023-05-15T08:11:07;35.60;;;18.70;;
18042;SDS011;9146;48.074;11.968;2023-05-15T08:13:34;39.00;;;21.47;;
18042;SDS011;9146;48.074;11.968;2023-05-15T08:16:01;31.67;;;18.47;;
18042;SDS011;9146;48.074;11.968;2023-05-15T08:18:28;35.50;;;19.13;;
18042;SDS011;9146;48.074;11.968;2023-05-15T08:20:55;29.00;;;17.20;;
18042;SDS011;9146;48.074;11.968;2023-05-15T08:23:22;29.10;;;17.33;;
18042;SDS011;9146;48.074;11.968;2023-05-15T08:25:50;31.30;;;19.33;;
18042;SDS011;9146;48.074;11.968;2023-05-15T08:28:18;22.17;;;16.50;;
18042;SDS011;9146;48.074;11.968;2023-05-15T08:30:45;19.50;;;14.37;;
18042;SDS011;9146;48.074;11.968;2023-05-15T08:33:12;16.43;;;13.90;;
18042;SDS011;9146;48.074;11.968;2023-05-15T08:35:40;18.13;;;12.90;;
18042;SDS011;9146;48.074;11.968;2023-05-15T08:38:06;15.63;;;12.67;;
18042;SDS011;9146;48.074;11.968;2023-05-15T08:40:33;16.87;;;13.10;;
18042;SDS011;9146;48.074;11.968;2023-05-15T08:43:02;13.00;;;11.37;;
18042;SDS011;9146;48.074;11.968;2023-05-15T08:45:33;12.63;;;11.40;;
18042;SDS011;9146;48.074;11.968;2023-05-15T08:48:00;12.70;;;9.83;;
18042;SDS011;9146;48.074;11.968;2023-05-15T08:50:32;10.57;;;9.17;;
18042;SDS011;9146;48.074;11.968;2023-05-15T08:52:59;9.50;;;8.60;;
18042;SDS011;9146;48.074;11.968;2023-05-15T08:55:27;13.77;;;12.37;;
18042;SDS011;9146;48.074;11.968;2023-05-15T08:57:54;12.30;;;11.00;;
18042;SDS011;9146;48.074;11.968;2023-05-15T09:00:21;13.50;;;12.10;;
18042;SDS011;9146;48.074;11.968;2023-05-15T09:02:52;10.97;;;9.67;;
18042;SDS011;9146;48.074;11.968;2023-05-15T09:05:19;11.70;;;10.60;;
18042;SDS011;9146;48.074;11.968;2023-05-15T09:07:46;9.43;;;8.43;;
18042;SDS011;9146;48.074;11.968;2023-05-15T09:10:14;11.63;;;10.40;;
18042;SDS011;9146;48.074;11.968;2023-05-15T09:12:41;9.37;;;8.57;;
18042;SDS011;9146;48.074;11.968;2023-05-15T09:15:10;8.50;;;7.60;;
18042;SDS011;9146;48.074;11.968;2023-05-15T09:17:38;10.03;;;8.00;;
18042;SDS011;9146;48.074;11.968;2023-05-15T09:20:10;9.87;;;8.87;;
18042;SDS011;9146;48.074;11.968;2023-05-15T09:22:50;9.43;;;8.20;;
18042;SDS011;9146;48.074;11.968;2023-05-15T09:25:30;8.00;;;7.20;;
18042;SDS011;9146;48.074;11.968;2023-05-15T09:27:59;8.13;;;7.43;;
18042;SDS011;9146;48.074;11.968;2023-05-15T09:30:26;8.80;;;8.00;;
18042;SDS011;9146;48.074;11.968;2023-05-15T09:32:55;10.67;;;8.80;;
18042;SDS011;9146;48.074;11.968;2023-05-15T09:35:29;8.97;;;8.10;;
18042;SDS011;9146;48.074;11.968;2023-05-15T09:37:57;8.17;;;7.40;;
18042;SDS011;9146;48.074;11.968;2023-05-15T09:40:27;7.70;;;7.00;;
18042;SDS011;9146;48.074;11.968;2023-05-15T09:42:55;9.13;;;8.23;;
18042;SDS011;9146;48.074;11.968;2023-05-15T09:45:22;11.70;;;7.60;;
18042;SDS011;9146;48.074;11.968;2023-05-15T09:47:50;10.83;;;9.17;;
18042;SDS011;9146;48.074;11.968;2023-05-15T09:50:19;12.63;;;11.13;;
18042;SDS011;9146;48.074;11.968;2023-05-15T09:52:48;16.70;;;12.23;;
18042;SDS011;9146;48.074;11.968;2023-05-15T09:55:15;15.30;;;12.03;;
18042;SDS011;9146;48.074;11.968;2023-05-15T09:57:43;10.73;;;8.67;;
18042;SDS011;9146;48.074;11.968;2023-05-15T10:00:11;12.73;;;10.03;;
18042;SDS011;9146;48.074;11.968;2023-05-15T10:02:39;7.93;;;7.13;;
18042;SDS011;9146;48.074;11.968;2023-05-15T10:05:06;7.90;;;6.90;;
18042;SDS011;9146;48.074;11.968;2023-05-15T10:07:34;7.90;;;7.20;;
18042;SDS011;9146;48.074;11.968;2023-05-15T10:10:03;36.93;;;22.77;;
18042;SDS011;9146;48.074;11.968;2023-05-15T10:12:31;24.00;;;16.23;;
18042;SDS011;9146;48.074;11.968;2023-05-15T10:15:00;18.03;;;12.30;;
18042;SDS011;9146;48.074;11.968;2023-05-15T10:17:28;26.20;;;16.50;;
18042;SDS011;9146;48.074;11.968;2023-05-15T10:19:59;30.67;;;17.37;;
18042;SDS011;9146;48.074;11.968;2023-05-15T10:22:31;18.63;;;13.47;;
18042;SDS011;9146;48.074;11.968;2023-05-15T10:25:06;12.83;;;9.70;;
18042;SDS011;9146;48.074;11.968;2023-05-15T10:27:38;8.27;;;7.43;;
18042;SDS011;9146;48.074;11.968;2023-05-15T10:30:07;7.60;;;6.10;;
18042;SDS011;9146;48.074;11.968;2023-05-15T10:32:36;5.53;;;5.03;;
18042;SDS011;9146;48.074;11.968;2023-05-15T10:35:06;5.37;;;4.80;;
18042;SDS011;9146;48.074;11.968;2023-05-15T10:37:36;5.37;;;4.87;;
18042;SDS011;9146;48.074;11.968;2023-05-15T10:40:08;5.80;;;5.30;;
18042;SDS011;9146;48.074;11.968;2023-05-15T10:42:36;7.10;;;5.17;;
18042;SDS011;9146;48.074;11.968;2023-05-15T10:45:07;6.10;;;5.37;;
18042;SDS011;9146;48.074;11.968;2023-05-15T10:47:35;6.80;;;6.00;;
18042;SDS011;9146;48.074;11.968;2023-05-15T10:50:03;6.83;;;5.37;;
18042;SDS011;9146;48.074;11.968;2023-05-15T10:52:31;7.00;;;5.27;;
18042;SDS011;9146;48.074;11.968;2023-05-15T10:54:58;4.87;;;4.33;;
18042;SDS011;9146;48.074;11.968;2023-05-15T10:57:28;5.23;;;4.73;;
18042;SDS011;9146;48.074;11.968;2023-05-15T10:59:56;4.63;;;4.23;;
18042;SDS011;9146;48.074;11.968;2023-05-15T11:02:24;4.70;;;4.30;;
18042;SDS011;9146;48.074;11.968;2023-05-15T11:04:54;5.67;;;4.80;;
18042;SDS011;9146;48.074;11.968;2023-05-15T11:07:22;7.97;;;4.00;;
18042;SDS011;9146;48.074;11.968;2023-05-15T11:09:49;4.80;;;3.77;;
18042;SDS011;9146;48.074;11.968;2023-05-15T11:12:17;4.47;;;4.07;;
18042;SDS011;9146;48.074;11.968;2023-05-15T11:18:02;5.10;;;4.60;;
18042;SDS011;9146;48.074;11.968;2023-05-15T11:20:33;4.70;;;4.33;;
18042;SDS011;9146;48.074;11.968;2023-05-15T11:23:04;5.30;;;4.80;;
18042;SDS011;9146;48.074;11.968;2023-05-15T11:25:33;5.20;;;4.70;;
18042;SDS011;9146;48.074;11.968;2023-05-15T11:28:01;4.37;;;3.93;;
18042;SDS011;9146;48.074;11.968;2023-05-15T11:33:28;5.30;;;4.80;;
18042;SDS011;9146;48.074;11.968;2023-05-15T11:35:56;4.93;;;4.53;;
18042;SDS011;9146;48.074;11.968;2023-05-15T11:38:24;6.07;;;5.53;;
18042;SDS011;9146;48.074;11.968;2023-05-15T11:40:52;8.47;;;4.50;;
18042;SDS011;9146;48.074;11.968;2023-05-15T11:43:22;5.40;;;4.97;;
18042;SDS011;9146;48.074;11.968;2023-05-15T11:45:52;6.07;;;5.43;;
18042;SDS011;9146;48.074;11.968;2023-05-15T11:48:21;8.80;;;4.97;;
18042;SDS011;9146;48.074;11.968;2023-05-15T11:50:48;4.80;;;3.97;;
18042;SDS011;9146;48.074;11.968;2023-05-15T11:53:18;4.90;;;4.10;;
18042;SDS011;9146;48.074;11.968;2023-05-15T11:55:47;4.47;;;3.80;;
18042;SDS011;9146;48.074;11.968;2023-05-15T11:58:14;3.40;;;3.10;;
18042;SDS011;9146;48.074;11.968;2023-05-15T12:00:43;4.10;;;3.80;;
18042;SDS011;9146;48.074;11.968;2023-05-15T12:03:15;3.97;;;3.67;;
18042;SDS011;9146;48.074;11.968;2023-05-15T12:05:44;3.03;;;2.80;;
18042;SDS011;9146;48.074;11.968;2023-05-15T12:08:11;3.43;;;3.13;;
18042;SDS011;9146;48.074;11.968;2023-05-15T12:10:39;5.27;;;4.77;;
18042;SDS011;9146;48.074;11.968;2023-05-15T12:13:07;4.40;;;4.00;;
18042;SDS011;9146;48.074;11.968;2023-05-15T12:15:35;8.40;;;4.27;;
18042;SDS011;9146;48.074;11.968;2023-05-15T12:18:03;3.93;;;3.63;;
18042;SDS011;9146;48.074;11.968;2023-05-15T12:20:33;3.47;;;3.27;;
18042;SDS011;9146;48.074;11.968;2023-05-15T12:23:01;4.23;;;3.50;;
18042;SDS011;9146;48.074;11.968;2023-05-15T12:25:29;3.70;;;3.40;;
18042;SDS011;9146;48.074;11.968;2023-05-15T12:27:58;4.73;;;3.63;;
18042;SDS011;9146;48.074;11.968;2023-05-15T12:30:26;4.10;;;3.80;;
18042;SDS011;9146;48.074;11.968;2023-05-15T12:32:57;3.73;;;3.43;;
18042;SDS011;9146;48.074;11.968;2023-05-15T12:35:25;3.13;;;2.93;;
18042;SDS011;9146;48.074;11.968;2023-05-15T12:37:54;3.23;;;2.77;;
18042;SDS011;9146;48.074;11.968;2023-05-15T12:40:21;3.23;;;3.03;;
18042;SDS011;9146;48.074;11.968;2023-05-15T12:42:50;2.83;;;2.63;;
18042;SDS011;9146;48.074;11.968;2023-05-15T12:45:19;4.60;;;3.27;;
18042;SDS011;9146;48.074;11.968;2023-05-15T12:47:47;2.70;;;2.50;;
18042;SDS011;9146;48.074;11.968;2023-05-15T12:50:16;2.97;;;2.67;;
18042;SDS011;9146;48.074;11.968;2023-05-15T12:52:51;2.83;;;2.63;;
18042;SDS011;9146;48.074;11.968;2023-05-15T12:55:22;2.60;;;2.40;;
18042;SDS011;9146;48.074;11.968;2023-05-15T12:57:50;3.00;;;2.80;;
18042;SDS011;9146;48.074;11.968;2023-05-15T13:00:17;2.93;;;2.73;;
18042;SDS011;9146;48.074;11.968;2023-05-15T13:02:47;2.97;;;2.70;;
18042;SDS011;9146;48.074;11.968;2023-05-15T13:05:15;2.30;;;2.20;;
18042;SDS011;9146;48.074;11.968;2023-05-15T13:07:42;2.27;;;2.17;;
18042;SDS011;9146;48.074;11.968;2023-05-15T13:10:09;2.97;;;2.70;;
18042;SDS011;9146;48.074;11.968;2023-05-15T13:12:39;3.23;;;3.03;;
18042;SDS011;9146;48.074;11.968;2023-05-15T13:15:20;2.80;;;2.60;;
18042;SDS011;9146;48.074;11.968;2023-05-15T13:17:50;3.53;;;3.23;;
18042;SDS011;9146;48.074;11.968;2023-05-15T13:20:20;3.57;;;3.27;;
18042;SDS011;9146;48.074;11.968;2023-05-15T13:22:47;3.73;;;3.40;;
18042;SDS011;9146;48.074;11.968;2023-05-15T13:25:16;3.67;;;3.37;;
18042;SDS011;9146;48.074;11.968;2023-05-15T13:27:45;5.53;;;3.40;;
18042;SDS011;9146;48.074;11.968;2023-05-15T13:30:13;4.83;;;4.43;;
18042;SDS011;9146;48.074;11.968;2023-05-15T13:32:40;4.40;;;4.00;;
18042;SDS011;9146;48.074;11.968;2023-05-15T13:35:07;4.40;;;4.00;;
18042;SDS011;9146;48.074;11.968;2023-05-15T13:37:35;4.23;;;3.67;;
18042;SDS011;9146;48.074;11.968;2023-05-15T13:40:02;4.73;;;4.20;;
18042;SDS011;9146;48.074;11.968;2023-05-15T13:42:32;4.37;;;4.03;;
18042;SDS011;9146;48.074;11.968;2023-05-15T13:45:00;4.60;;;4.20;;
18042;SDS011;9146;48.074;11.968;2023-05-15T13:47:27;5.70;;;4.33;;
18042;SDS011;9146;48.074;11.968;2023-05-15T13:49:54;4.10;;;3.80;;
18042;SDS011;9146;48.074;11.968;2023-05-15T13:52:22;4.80;;;4.40;;
18042;SDS011;9146;48.074;11.968;2023-05-15T13:54:49;4.07;;;3.67;;
18042;SDS011;9146;48.074;11.968;2023-05-15T13:57:16;3.80;;;3.47;;
18042;SDS011;9146;48.074;11.968;2023-05-15T13:59:43;3.70;;;3.40;;
18042;SDS011;9146;48.074;11.968;2023-05-15T14:02:11;4.10;;;3.30;;
18042;SDS011;9146;48.074;11.968;2023-05-15T14:04:38;2.30;;;2.10;;
18042;SDS011;9146;48.074;11.968;2023-05-15T14:07:05;2.40;;;2.30;;
18042;SDS011;9146;48.074;11.968;2023-05-15T14:09:32;2.80;;;2.60;;
18042;SDS011;9146;48.074;11.968;2023-05-15T14:11:59;2.10;;;2.00;;
18042;SDS011;9146;48.074;11.968;2023-05-15T14:14:26;2.00;;;1.90;;
18042;SDS011;9146;48.074;11.968;2023-05-15T14:16:53;2.47;;;2.27;;
18042;SDS011;9146;48.074;11.968;2023-05-15T14:19:22;2.50;;;2.40;;
18042;SDS011;9146;48.074;11.968;2023-05-15T14:21:48;2.70;;;2.50;;
18042;SDS011;9146;48.074;11.968;2023-05-15T14:24:16;2.07;;;1.97;;
18042;SDS011;9146;48.074;11.968;2023-05-15T14:26:44;2.47;;;1.90;;
18042;SDS011;9146;48.074;11.968;2023-05-15T14:29:11;2.60;;;2.20;;
18042;SDS011;9146;48.074;11.968;2023-05-15T14:31:39;2.33;;;2.23;;
18042;SDS011;9146;48.074;11.968;2023-05-15T14:34:06;1.60;;;1.50;;
18042;SDS011;9146;48.074;11.968;2023-05-15T14:36:34;2.50;;;2.30;;
18042;SDS011;9146;48.074;11.968;2023-05-15T14:39:01;1.70;;;1.60;;
18042;SDS011;9146;48.074;11.968;2023-05-15T14:41:28;2.03;;;1.90;;
18042;SDS011;9146;48.074;11.968;2023-05-15T14:43:55;1.80;;;1.70;;